Time;durP1;ratioP1;P1;durP2;ratioP2;P2;SDS_P1;SDS_P2;PMS_P1;PMS_P2;Temp;Humidity;BMP_temperature;BMP_pressure;BME280_temperature;BME280_humidity;BME280_pressure;Samples;Min_cycle;Max_cycle;Signal;HPM_P1;HPM_P2
2021/04/28 00:00:48;;;;;;;15.87;7.63;;;;;;;0.87;65.58;99798.86;1779553;79;21668;-55
2021/04/28 00:03:16;;;;;;;11.47;6.33;;;;;;;0.87;65.67;99801.95;1774875;79;21135;-56
2021/04/28 00:05:43;;;;;;;15.83;7.10;;;;;;;0.88;65.71;99795.77;1779899;80;21661;-55
2021/04/28 00:08:10;;;;;;;12.80;6.53;;;;;;;0.87;65.71;99798.86;1775887;79;21199;-55
2021/04/28 00:10:40;;;;;;;17.37;7.43;;;;;;;0.87;65.73;99796.20;1773711;79;21645;-56
2021/04/28 00:13:13;;;;;;;10.87;7.03;;;;;;;0.86;65.77;99798.42;1778570;79;21610;-56
2021/04/28 00:15:45;;;;;;;12.77;7.20;;;;;;;0.86;65.77;99797.54;1778029;79;21128;-56
2021/04/28 00:18:16;;;;;;;13.73;6.37;;;;;;;0.85;65.78;99798.46;1775595;79;21171;-55
2021/04/28 00:20:47;;;;;;;15.57;6.63;;;;;;;0.84;65.79;99800.67;1775532;79;21167;-56
2021/04/28 00:23:15;;;;;;;9.30;5.37;;;;;;;0.84;65.77;99800.23;1775961;79;22055;-56
2021/04/28 00:25:43;;;;;;;12.73;6.47;;;;;;;0.84;65.75;99809.50;1774269;80;21212;-56
2021/04/28 00:28:11;;;;;;;8.50;5.93;;;;;;;0.83;65.73;99805.53;1779389;79;21120;-56
2021/04/28 00:30:39;;;;;;;10.67;5.60;;;;;;;0.81;65.77;99809.96;1777236;79;21088;-56
2021/04/28 00:33:06;;;;;;;14.00;5.47;;;;;;;0.76;65.78;99808.69;1781426;79;21123;-56
2021/04/28 00:35:33;;;;;;;10.63;6.00;;;;;;;0.71;65.85;99807.38;1773698;79;22290;-56
2021/04/28 00:38:01;;;;;;;11.17;4.90;;;;;;;0.67;65.94;99803.45;1773447;79;21196;-55
2021/04/28 00:40:31;;;;;;;14.23;4.73;;;;;;;0.64;66.04;99810.97;1773331;79;21881;-55
2021/04/28 00:42:58;;;;;;;9.57;5.17;;;;;;;0.62;66.10;99809.22;1776061;79;21143;-55
2021/04/28 00:45:26;;;;;;;9.83;4.60;;;;;;;0.61;66.15;99814.08;1773596;79;21175;-55
2021/04/28 00:47:54;;;;;;;11.33;4.73;;;;;;;0.61;66.15;99813.63;1774311;80;21406;-55
2021/04/28 00:50:27;;;;;;;9.23;4.50;;;;;;;0.59;66.13;99813.23;1776624;79;21477;-57
2021/04/28 00:52:54;;;;;;;7.33;4.47;;;;;;;0.55;66.14;99816.33;1775466;79;21231;-55
2021/04/28 00:55:22;;;;;;;11.37;4.37;;;;;;;0.53;66.21;99814.58;1771675;78;21439;-56
2021/04/28 00:57:50;;;;;;;13.83;5.13;;;;;;;0.51;66.19;99821.68;1776303;79;21560;-55
2021/04/28 01:00:19;;;;;;;6.37;4.40;;;;;;;0.45;66.25;99819.05;1774815;79;21439;-55
2021/04/28 01:02:47;;;;;;;8.10;4.33;;;;;;;0.42;66.37;99823.94;1774708;79;21642;-55
2021/04/28 01:05:15;;;;;;;8.87;4.50;;;;;;;0.42;66.43;99821.30;1774142;79;21184;-55
2021/04/28 01:07:44;;;;;;;6.63;3.43;;;;;;;0.44;66.41;99822.58;1776122;79;21103;-55
2021/04/28 01:10:28;;;;;;;14.20;4.27;;;;;;;0.43;66.37;99822.14;1773419;79;21222;-55
2021/04/28 01:12:56;;;;;;;10.53;4.10;;;;;;;0.40;66.45;99819.53;1777019;79;22069;-54
2021/04/28 01:15:27;;;;;;;11.57;4.07;;;;;;;0.41;66.48;99818.20;1779022;79;21134;-55
2021/04/28 01:18:02;;;;;;;7.83;3.93;;;;;;;0.43;66.48;99818.17;1774332;79;21470;-55
2021/04/28 01:20:32;;;;;;;10.87;3.30;;;;;;;0.44;66.41;99821.26;1778480;79;21183;-55
2021/04/28 01:23:01;;;;;;;9.17;4.50;;;;;;;0.43;66.44;99816.84;1776909;79;21172;-52
2021/04/28 01:25:31;;;;;;;9.67;4.60;;;;;;;0.39;66.44;99814.68;1776260;79;21536;-55
2021/04/28 01:28:13;;;;;;;10.87;5.50;;;;;;;0.37;66.48;99807.19;1773234;79;21592;-55
2021/04/28 01:30:57;;;;;;;8.47;5.03;;;;;;;0.34;66.43;99818.66;1777565;79;21505;-55
2021/04/28 01:33:35;;;;;;;11.57;4.30;;;;;;;0.31;66.46;99813.85;1775369;79;21108;-54
2021/04/28 01:36:07;;;;;;;13.43;3.90;;;;;;;0.27;66.52;99812.09;1776276;79;21172;-55
2021/04/28 01:38:42;;;;;;;7.97;4.97;;;;;;;0.22;66.61;99813.91;1780335;79;21261;-55
2021/04/28 01:41:09;;;;;;;10.40;5.00;;;;;;;0.18;66.72;99815.67;1780341;79;21166;-52
2021/04/28 01:43:40;;;;;;;8.73;4.03;;;;;;;0.17;66.74;99819.68;1777408;79;21516;-51
2021/04/28 01:46:08;;;;;;;8.17;4.23;;;;;;;0.16;66.84;99817.92;1775683;79;21270;-55
2021/04/28 01:48:37;;;;;;;7.63;4.03;;;;;;;0.15;66.88;99817.03;1777985;79;21206;-55
2021/04/28 01:51:05;;;;;;;9.33;4.47;;;;;;;0.15;66.83;99817.48;1775219;80;21430;-53
2021/04/28 01:53:34;;;;;;;10.53;4.73;;;;;;;0.13;66.80;99816.59;1759175;80;21131;-52
2021/04/28 01:56:01;;;;;;;11.63;4.70;;;;;;;0.09;66.81;99826.31;1776911;80;21220;-52
2021/04/28 01:58:46;;;;;;;15.55;5.10;;;;;;;0.06;66.78;99825.02;1772432;79;27037;-54
2021/04/28 02:01:24;;;;;;;15.48;9.68;;;;;;;0.06;66.88;99824.14;1852795;75;40275;-54
2021/04/28 02:03:53;;;;;;;15.67;8.33;;;;;;;0.05;66.96;99825.02;1840561;75;20954;-55
2021/04/28 02:06:22;;;;;;;17.53;8.27;;;;;;;0.12;66.80;99825.42;1838028;75;21630;-53
2021/04/28 02:08:51;;;;;;;18.67;8.70;;;;;;;0.10;66.82;99816.16;1839559;75;21000;-54
2021/04/28 02:11:19;;;;;;;20.30;9.50;;;;;;;0.10;66.79;99826.75;1837632;75;20929;-53
2021/04/28 02:13:48;;;;;;;25.67;11.63;;;;;;;0.09;66.74;99824.98;1815254;75;21103;-54
2021/04/28 02:16:23;;;;;;;26.40;11.60;;;;;;;0.09;66.71;99826.31;1835140;75;20941;-55
2021/04/28 02:18:52;;;;;;;32.33;13.57;;;;;;;0.06;66.75;99824.14;1815488;75;21178;-54
2021/04/28 02:21:19;;;;;;;30.50;12.93;;;;;;;0.05;66.76;99826.34;1783367;78;21213;-52
2021/04/28 02:23:55;;;;;;;24.00;11.53;;;;;;;0.03;66.74;99824.14;1785005;79;21069;-54
2021/04/28 02:26:23;;;;;;;25.37;10.20;;;;;;;-0.02;66.81;99825.06;1781397;78;21354;-55
2021/04/28 02:28:50;;;;;;;22.27;8.60;;;;;;;-0.06;66.95;99829.91;1787115;79;21199;-55
2021/04/28 02:31:17;;;;;;;15.83;6.43;;;;;;;-0.05;67.00;99832.13;1781882;78;21621;-53
2021/04/28 02:33:47;;;;;;;11.70;5.27;;;;;;;-0.06;66.98;99827.71;1788035;79;21397;-54
2021/04/28 02:36:36;;;;;;;19.30;7.67;;;;;;;-0.05;66.93;99830.80;1788671;79;21140;-53
2021/04/28 02:39:39;;;;;;;18.30;8.10;;;;;;;-0.01;66.93;99828.14;1861243;75;26338;-52
2021/04/28 02:42:07;;;;;;;25.20;9.93;;;;;;;-0.02;66.88;99831.67;1856512;74;20936;-57
2021/04/28 02:44:36;;;;;;;17.07;7.60;;;;;;;-0.01;66.82;99833.88;1815011;76;22255;-52
2021/04/28 02:47:06;;;;;;;19.73;7.80;;;;;;;-0.01;66.71;99834.77;1845950;76;20968;-53
2021/04/28 02:49:38;;;;;;;17.87;8.10;;;;;;;-0.04;66.79;99833.88;1810729;76;20941;-54
2021/04/28 02:52:24;;;;;;;8.60;4.47;;;;;;;-0.01;66.81;99834.77;1820689;75;27004;-52
2021/04/28 02:54:52;;;;;;;10.20;4.10;;;;;;;-0.03;66.76;99831.67;1787246;77;21516;-52
2021/04/28 02:57:21;;;;;;;11.03;5.83;;;;;;;-0.03;66.71;99832.56;1796561;77;22095;-53
2021/04/28 02:59:50;;;;;;;16.40;7.17;;;;;;;-0.01;66.68;99832.56;1788444;77;21206;-54
2021/04/28 03:02:18;;;;;;;11.67;6.00;;;;;;;0.01;66.65;99830.76;1765022;77;20929;-52
2021/04/28 03:04:48;;;;;;;14.17;5.23;;;;;;;0.02;66.67;99834.28;1775831;77;22390;-55
2021/04/28 03:07:17;;;;;;;17.10;5.87;;;;;;;0.03;66.57;99834.28;1790837;77;21770;-53
2021/04/28 03:09:44;;;;;;;10.97;6.03;;;;;;;0.02;66.55;99833.84;1790877;77;22217;-54
2021/04/28 03:12:16;;;;;;;10.37;5.20;;;;;;;0.02;66.69;99839.14;1792929;77;21491;-54
2021/04/28 03:14:59;;;;;;;8.97;6.90;;;;;;;0.08;66.70;99839.58;1804236;76;27776;-52
2021/04/28 03:17:27;;;;;;;7.97;4.53;;;;;;;0.10;66.66;99839.98;1794965;77;21128;-52
2021/04/28 03:19:57;;;;;;;9.10;4.27;;;;;;;0.19;66.66;99841.70;1749086;77;21224;-51
2021/04/28 03:22:26;;;;;;;9.27;4.43;;;;;;;0.22;66.61;99850.97;1796500;77;21184;-54
2021/04/28 03:24:55;;;;;;;5.03;3.33;;;;;;;0.24;66.68;99851.84;1797392;77;21004;-53
2021/04/28 03:27:24;;;;;;;6.83;3.07;;;;;;;0.26;66.78;99856.66;1771774;77;21041;-53
2021/04/28 03:29:56;;;;;;;5.77;2.77;;;;;;;0.30;66.81;99851.36;1790197;77;21519;-52
2021/04/28 03:32:24;;;;;;;4.77;2.70;;;;;;;0.35;66.82;99850.00;1794454;77;21813;-55
2021/04/28 03:34:53;;;;;;;5.23;2.93;;;;;;;0.39;66.81;99855.73;1797814;77;20992;-54
2021/04/28 03:37:21;;;;;;;6.47;2.83;;;;;;;0.44;66.80;99867.16;1793945;77;21062;-54
2021/04/28 03:39:49;;;;;;;4.07;2.40;;;;;;;0.47;66.88;99871.56;1796363;77;21779;-55
2021/04/28 03:42:17;;;;;;;5.67;3.43;;;;;;;0.52;66.92;99869.31;1800613;77;21238;-56
2021/04/28 03:44:44;;;;;;;5.73;3.23;;;;;;;0.59;66.99;99872.83;1800693;77;21408;-54
2021/04/28 03:47:12;;;;;;;5.37;3.03;;;;;;;0.65;67.00;99871.02;1793360;77;21115;-53
2021/04/28 03:49:41;;;;;;;4.63;3.00;;;;;;;0.72;66.85;99874.05;1794674;77;21202;-55
2021/04/28 03:52:10;;;;;;;9.00;4.00;;;;;;;0.81;66.95;99873.55;1765789;77;21183;-56
2021/04/28 03:54:38;;;;;;;11.90;5.33;;;;;;;0.96;67.02;99880.94;1798955;77;21217;-53
2021/04/28 03:57:07;;;;;;;14.23;5.83;;;;;;;1.14;67.02;99874.17;1800339;77;21475;-53
2021/04/28 03:59:34;;;;;;;8.03;4.80;;;;;;;1.38;66.97;99877.49;1795838;77;21164;-54
2021/04/28 04:02:03;;;;;;;8.80;4.77;;;;;;;1.65;66.78;99875.02;1796506;77;21170;-55
2021/04/28 04:04:58;;;;;;;10.70;5.27;;;;;;;2.10;66.27;99871.86;1864849;75;27178;-54
2021/04/28 04:07:44;;;;;;;10.03;4.90;;;;;;;2.49;65.89;99878.87;1777411;78;21605;-52
2021/04/28 04:10:30;;;;;;;11.37;5.57;;;;;;;3.06;65.08;99868.30;1798793;77;21844;-50
2021/04/28 04:12:59;;;;;;;12.73;5.90;;;;;;;3.66;64.16;99873.86;1779600;78;21265;-50
2021/04/28 04:15:29;;;;;;;10.00;5.83;;;;;;;4.22;63.13;99874.56;1786709;78;21067;-52
2021/04/28 04:17:57;;;;;;;13.17;7.43;;;;;;;4.76;61.98;99879.62;1806807;78;21210;-51
2021/04/28 04:20:37;;;;;;;11.67;6.37;;;;;;;5.38;60.56;99873.20;1870842;75;26712;-50
2021/04/28 04:23:08;;;;;;;13.57;6.13;;;;;;;5.81;59.17;99875.18;1774824;78;21146;-52
2021/04/28 04:25:43;;;;;;;8.80;5.17;;;;;;;6.30;58.14;99880.52;1803178;78;21625;-51
2021/04/28 04:28:12;;;;;;;6.20;4.80;;;;;;;6.81;56.79;99880.30;1763120;79;21536;-52
2021/04/28 04:30:41;;;;;;;8.70;4.40;;;;;;;7.23;55.49;99871.82;1798839;78;21184;-50
2021/04/28 04:33:31;;;;;;;9.30;4.70;;;;;;;7.43;53.91;99871.17;1823481;77;27146;-51
2021/04/28 04:36:18;;;;;;;6.03;3.57;;;;;;;7.32;52.90;99879.55;1796143;77;21155;-50
2021/04/28 04:39:05;;;;;;;5.40;4.57;;;;;;;7.16;52.16;99880.98;1740739;80;21471;-50
2021/04/28 04:41:40;;;;;;;7.30;3.60;;;;;;;7.01;51.96;99882.36;1758533;79;21203;-51
2021/04/28 04:44:20;;;;;;;9.90;3.47;;;;;;;6.92;51.63;99880.43;1864127;75;26596;-49
2021/04/28 04:46:58;;;;;;;5.80;3.20;;;;;;;6.78;50.93;99892.45;1844229;76;20961;-50
2021/04/28 04:49:26;;;;;;;6.60;2.37;;;;;;;6.67;50.88;99889.67;1846564;76;21723;-50
2021/04/28 04:51:53;;;;;;;8.27;3.13;;;;;;;6.58;50.36;99888.16;1844774;76;21610;-49
2021/04/28 04:54:22;;;;;;;3.80;1.70;;;;;;;6.53;50.32;99894.57;1846070;76;22573;-51
2021/04/28 04:56:49;;;;;;;1.63;0.90;;;;;;;6.48;49.83;99897.82;1843165;76;21519;-50
2021/04/28 04:59:16;;;;;;;3.60;1.20;;;;;;;6.47;48.65;99902.29;1802979;78;21349;-50
2021/04/28 05:01:43;;;;;;;2.93;1.33;;;;;;;6.45;48.32;99906.38;1769163;78;21385;-53
2021/04/28 05:04:11;;;;;;;3.17;1.43;;;;;;;6.45;48.30;99910.84;1787656;79;21552;-50
2021/04/28 05:06:39;;;;;;;2.57;0.90;;;;;;;6.45;47.19;99911.72;1783517;79;20980;-51
2021/04/28 05:09:06;;;;;;;2.73;0.83;;;;;;;6.46;46.94;99917.95;1787223;79;21715;-53
2021/04/28 05:11:34;;;;;;;1.17;0.70;;;;;;;6.47;45.65;99923.69;1786054;79;21955;-53
2021/04/28 05:14:02;;;;;;;1.07;0.60;;;;;;;6.47;45.92;99918.34;1786377;79;21368;-53
2021/04/28 05:16:32;;;;;;;0.97;0.50;;;;;;;6.50;44.24;99918.72;1784672;78;21715;-51
2021/04/28 05:19:00;;;;;;;0.83;0.60;;;;;;;6.50;43.84;99920.94;1805825;77;21107;-49
2021/04/28 05:21:27;;;;;;;2.90;0.60;;;;;;;6.50;43.68;99928.08;1805483;78;21415;-49
2021/04/28 05:23:55;;;;;;;1.40;0.60;;;;;;;6.50;43.68;99932.09;1810122;77;21118;-51
2021/04/28 05:26:30;;;;;;;1.37;0.80;;;;;;;6.49;43.83;99928.53;1787574;78;21542;-51
2021/04/28 05:28:57;;;;;;;4.87;0.60;;;;;;;6.54;43.54;99927.08;1781921;78;21030;-50
2021/04/28 05:31:25;;;;;;;2.70;1.10;;;;;;;6.59;43.68;99930.03;1798995;78;21107;-52
2021/04/28 05:33:52;;;;;;;2.73;0.90;;;;;;;6.65;43.46;99929.84;1786073;78;21434;-50
2021/04/28 05:36:20;;;;;;;1.83;0.73;;;;;;;6.72;44.20;99939.92;1802561;78;21133;-51
2021/04/28 05:38:49;;;;;;;2.33;0.90;;;;;;;6.80;43.08;99941.91;1804863;78;21219;-50
2021/04/28 05:41:16;;;;;;;1.70;0.97;;;;;;;6.86;41.87;99940.83;1803159;78;20997;-52
2021/04/28 05:43:43;;;;;;;2.60;0.70;;;;;;;6.88;42.62;99941.21;1784446;78;21102;-51
2021/04/28 05:46:11;;;;;;;3.17;0.80;;;;;;;6.94;42.07;99945.49;1778878;78;20937;-51
2021/04/28 05:48:38;;;;;;;2.77;0.70;;;;;;;6.99;41.94;99943.08;1781061;78;21110;-51
2021/04/28 05:51:06;;;;;;;1.73;0.67;;;;;;;7.07;42.25;99949.07;1749701;80;21703;-52
2021/04/28 05:53:33;;;;;;;1.73;0.80;;;;;;;7.14;42.15;99948.45;1778925;78;21210;-51
2021/04/28 05:56:04;;;;;;;1.43;0.80;;;;;;;7.21;41.25;99954.02;1781575;78;21167;-51
2021/04/28 05:58:31;;;;;;;1.47;0.70;;;;;;;7.25;41.67;99953.44;1781405;78;21099;-51
2021/04/28 06:00:59;;;;;;;1.90;1.00;;;;;;;7.31;41.54;99952.80;1754287;79;21642;-52
2021/04/28 06:03:27;;;;;;;2.67;1.20;;;;;;;7.38;41.69;99950.34;1744578;80;21198;-52
2021/04/28 06:05:55;;;;;;;3.30;1.00;;;;;;;7.44;40.86;99954.61;1778163;78;21185;-51
2021/04/28 06:08:22;;;;;;;2.77;0.70;;;;;;;7.46;41.55;99959.00;1779261;78;21720;-52
2021/04/28 06:10:49;;;;;;;1.90;1.13;;;;;;;7.49;41.07;99953.52;1751973;80;21178;-52
2021/04/28 06:13:17;;;;;;;2.57;1.00;;;;;;;7.54;41.16;99952.05;1778221;79;22230;-52
2021/04/28 06:15:48;;;;;;;1.57;0.90;;;;;;;7.59;40.95;99952.77;1775769;79;21397;-51
2021/04/28 06:18:15;;;;;;;1.93;1.03;;;;;;;7.65;41.23;99955.73;1776222;79;21220;-52
2021/04/28 06:20:43;;;;;;;2.43;1.00;;;;;;;7.69;41.00;99952.88;1779094;79;22251;-51
2021/04/28 06:23:10;;;;;;;1.20;0.77;;;;;;;7.77;41.04;99953.95;1779252;78;21111;-51
2021/04/28 06:25:39;;;;;;;5.07;0.90;;;;;;;7.87;41.42;99956.75;1781036;78;21084;-51
2021/04/28 06:28:07;;;;;;;1.37;0.60;;;;;;;7.95;41.39;99956.02;1779297;78;21463;-51
2021/04/28 06:30:35;;;;;;;1.20;0.80;;;;;;;8.04;40.63;99958.84;1778228;79;22693;-51
2021/04/28 06:33:03;;;;;;;2.07;0.70;;;;;;;8.10;40.41;99958.16;1752026;79;21210;-52
2021/04/28 06:35:32;;;;;;;2.27;0.80;;;;;;;8.17;40.62;99960.16;1781823;78;21498;-52
2021/04/28 06:38:00;;;;;;;4.03;0.60;;;;;;;8.23;40.42;99954.14;1781903;78;21174;-51
2021/04/28 06:40:28;;;;;;;1.20;0.60;;;;;;;8.30;40.10;99952.98;1740416;80;21525;-51
2021/04/28 06:42:55;;;;;;;2.63;0.67;;;;;;;8.35;39.72;99953.72;1780774;79;21309;-51
2021/04/28 06:45:24;;;;;;;2.60;0.80;;;;;;;8.42;40.25;99960.22;1785707;79;21163;-51
2021/04/28 06:47:53;;;;;;;4.83;0.70;;;;;;;8.51;39.78;99957.17;1756748;80;21192;-51
2021/04/28 06:50:24;;;;;;;1.03;0.40;;;;;;;8.59;40.03;99961.33;1780109;78;21169;-50
2021/04/28 06:52:52;;;;;;;0.67;0.30;;;;;;;8.68;39.91;99964.14;1756492;79;21539;-51
2021/04/28 06:55:20;;;;;;;0.60;0.37;;;;;;;8.78;39.58;99964.21;1785396;78;22281;-51
2021/04/28 06:57:54;;;;;;;0.50;0.30;;;;;;;8.92;39.13;99965.05;1781594;79;21190;-51
2021/04/28 07:00:21;;;;;;;0.50;0.30;;;;;;;9.05;38.88;99963.63;1782195;79;21618;-51
2021/04/28 07:02:49;;;;;;;0.60;0.30;;;;;;;9.16;38.37;99964.56;1779808;79;21589;-52
2021/04/28 07:05:18;;;;;;;0.93;0.30;;;;;;;9.23;38.26;99968.76;1730561;81;22812;-50
2021/04/28 07:07:47;;;;;;;0.40;0.20;;;;;;;9.34;38.08;99977.28;1754816;79;21218;-52
2021/04/28 07:10:16;;;;;;;1.07;0.37;;;;;;;9.45;38.07;99975.89;1778637;78;21194;-52
2021/04/28 07:12:43;;;;;;;0.77;0.40;;;;;;;9.55;37.68;99969.69;1759569;80;21142;-52
2021/04/28 07:15:11;;;;;;;1.93;0.30;;;;;;;9.63;37.65;99972.94;1756205;80;21206;-52
2021/04/28 07:17:38;;;;;;;1.53;0.47;;;;;;;9.70;37.89;99969.05;1781728;79;21646;-51
2021/04/28 07:20:09;;;;;;;0.80;0.40;;;;;;;9.77;37.59;99972.39;1755136;80;21241;-50
2021/04/28 07:22:36;;;;;;;1.90;0.30;;;;;;;9.83;37.10;99977.03;1759053;79;21121;-51
2021/04/28 07:25:05;;;;;;;0.63;0.30;;;;;;;9.88;36.87;99979.05;1757291;79;21123;-51
2021/04/28 07:27:32;;;;;;;0.57;0.30;;;;;;;9.92;36.24;99966.83;1782267;78;21095;-52
2021/04/28 07:30:00;;;;;;;0.40;0.30;;;;;;;9.99;35.99;99976.38;1759858;79;23005;-51
2021/04/28 07:32:28;;;;;;;0.57;0.30;;;;;;;10.01;36.21;99971.83;1757252;80;21222;-51
2021/04/28 07:34:55;;;;;;;0.60;0.30;;;;;;;10.02;35.61;99967.73;1780785;78;21521;-51
2021/04/28 07:37:22;;;;;;;0.40;0.20;;;;;;;10.04;35.69;99968.52;1735186;79;21198;-51
2021/04/28 07:39:49;;;;;;;0.40;0.30;;;;;;;10.07;35.23;99968.39;1762531;79;21190;-52
2021/04/28 07:42:17;;;;;;;3.00;0.40;;;;;;;10.06;34.54;99970.67;1765647;79;23208;-52
2021/04/28 07:44:44;;;;;;;1.57;0.30;;;;;;;10.07;35.11;99967.52;1759308;79;21194;-52
2021/04/28 07:47:35;;;;;;;0.60;0.33;;;;;;;10.09;35.18;99958.45;1758226;79;21202;-51
2021/04/28 07:50:22;;;;;;;0.33;0.23;;;;;;;10.17;35.66;99966.19;1759438;79;21166;-52
2021/04/28 07:53:26;;;;;;;0.30;0.20;;;;;;;10.24;35.17;99960.97;1753348;79;21158;-52
2021/04/28 07:59:22;;;;;;;0.63;0.37;;;;;;;10.48;35.00;99962.58;1732088;79;21494;-52
2021/04/28 08:01:50;;;;;;;1.00;0.40;;;;;;;10.64;34.96;99962.77;1760516;79;21773;-50
2021/04/28 08:04:20;;;;;;;2.20;0.40;;;;;;;10.75;34.53;99955.08;1758647;79;21119;-50
2021/04/28 08:06:47;;;;;;;0.70;0.50;;;;;;;10.85;34.56;99959.58;1779726;79;21110;-51
2021/04/28 08:09:15;;;;;;;0.53;0.30;;;;;;;10.93;34.26;99950.67;1749646;80;21197;-51
2021/04/28 08:11:42;;;;;;;0.80;0.30;;;;;;;11.00;34.22;99951.66;1782559;78;21127;-52
2021/04/28 08:14:09;;;;;;;1.27;0.50;;;;;;;11.06;34.09;99951.83;1753585;80;21133;-52
2021/04/28 08:16:37;;;;;;;2.07;0.30;;;;;;;11.11;33.98;99950.28;1752461;80;21542;-50
2021/04/28 08:19:05;;;;;;;0.90;0.40;;;;;;;11.18;33.96;99963.39;1782413;78;21095;-52
2021/04/28 08:21:32;;;;;;;2.50;0.40;;;;;;;11.20;33.92;99957.94;1748336;80;21208;-52
2021/04/28 08:24:00;;;;;;;0.53;0.30;;;;;;;11.26;33.14;99950.42;1751115;80;21192;-52
2021/04/28 08:28:43;;;;;;;0.57;0.40;;;;;;;11.42;32.68;99938.91;1751017;79;23805;-52
2021/04/28 08:31:12;;;;;;;0.50;0.33;;;;;;;11.43;32.51;99942.88;1727358;80;21108;-52
2021/04/28 08:33:40;;;;;;;0.70;0.40;;;;;;;11.50;31.59;99946.14;1732330;80;22257;-52
2021/04/28 08:36:08;;;;;;;0.90;0.40;;;;;;;11.49;32.14;99939.87;1725281;80;21523;-52
2021/04/28 08:38:35;;;;;;;0.33;0.30;;;;;;;11.49;32.53;99939.87;1725404;80;21147;-52
2021/04/28 08:41:05;;;;;;;1.90;0.30;;;;;;;11.45;32.98;99942.33;1727340;80;21003;-52
2021/04/28 08:43:33;;;;;;;0.70;0.40;;;;;;;11.50;33.29;99943.44;1707768;82;21137;-52
2021/04/28 08:46:01;;;;;;;0.80;0.30;;;;;;;11.58;33.40;99947.51;1710085;82;21441;-53
2021/04/28 08:48:29;;;;;;;0.40;0.30;;;;;;;11.68;32.54;99939.84;1711630;81;21025;-52
2021/04/28 08:50:56;;;;;;;1.73;0.40;;;;;;;11.78;32.12;99933.08;1708425;81;20945;-52
2021/04/28 08:53:24;;;;;;;1.72;0.30;;;;;;;11.87;32.01;99937.14;1707966;81;21562;-52
2021/04/28 08:55:53;;;;;;;1.17;0.40;;;;;;;11.93;32.51;99935.00;1707921;81;21238;-52
2021/04/28 08:58:21;;;;;;;1.95;0.47;;;;;;;11.97;32.36;99944.70;1707009;81;21811;-53
2021/04/28 09:00:51;;;;;;;0.87;0.50;;;;;;;12.01;32.33;99937.30;1708037;82;21578;-53
2021/04/28 09:03:19;;;;;;;2.98;0.30;;;;;;;12.00;30.69;99932.84;1708377;82;21725;-52
2021/04/28 09:05:47;;;;;;;0.68;0.40;;;;;;;11.87;30.95;99933.09;1710546;82;21115;-53
2021/04/28 09:08:15;;;;;;;0.60;0.40;;;;;;;11.77;32.11;99931.33;1709040;82;21211;-52
2021/04/28 09:10:43;;;;;;;0.80;0.40;;;;;;;11.76;32.63;99936.32;1707615;82;21401;-52
2021/04/28 09:13:18;;;;;;;1.10;0.40;;;;;;;11.82;32.51;99936.03;1707670;82;21633;-52
2021/04/28 09:15:52;;;;;;;0.47;0.35;;;;;;;11.89;32.53;99929.38;1703332;82;21128;-53
2021/04/28 09:18:35;;;;;;;1.90;0.93;;;;;;;11.98;32.18;99930.73;1712661;81;21136;-53
2021/04/28 09:21:12;;;;;;;1.30;0.40;;;;;;;12.08;32.10;99930.63;1687061;82;21171;-53
2021/04/28 09:23:58;;;;;;;5.12;0.35;;;;;;;12.17;32.30;99924.76;1709724;82;21391;-52
2021/04/28 09:26:43;;;;;;;1.12;0.30;;;;;;;12.28;31.34;99931.83;1653707;82;21203;-53
2021/04/28 09:29:18;;;;;;;0.50;0.30;;;;;;;12.36;31.53;99928.73;1709742;82;21179;-53
2021/04/28 09:32:05;;;;;;;1.25;0.40;;;;;;;12.40;30.84;99923.58;1710804;82;21239;-53
2021/04/28 09:34:38;;;;;;;1.07;0.40;;;;;;;12.43;31.79;99924.74;1713334;82;21103;-53
2021/04/28 09:37:14;;;;;;;0.50;0.40;;;;;;;12.48;31.98;99930.79;1710094;82;21454;-53
2021/04/28 09:39:48;;;;;;;0.93;0.35;;;;;;;12.52;31.91;99931.00;1710310;82;21232;-52
2021/04/28 09:42:19;;;;;;;1.77;0.30;;;;;;;12.57;31.22;99921.33;1710694;82;21587;-54
2021/04/28 09:47:26;;;;;;;0.70;0.40;;;;;;;12.57;30.77;99911.41;1868978;75;22900;-53
2021/04/28 09:49:59;;;;;;;0.50;0.40;;;;;;;12.47;30.62;99921.81;1842294;76;20950;-53
2021/04/28 09:52:36;;;;;;;1.03;0.40;;;;;;;12.43;30.74;99922.05;1782341;78;22257;-53
2021/04/28 09:55:15;;;;;;;0.50;0.30;;;;;;;12.36;30.58;99910.70;1776433;79;21186;-53
2021/04/28 09:57:44;;;;;;;0.50;0.30;;;;;;;12.37;31.25;99910.23;1804833;78;21166;-52
2021/04/28 10:00:25;;;;;;;0.78;0.30;;;;;;;12.40;31.62;99913.66;1806941;78;21077;-53
2021/04/28 10:03:00;;;;;;;1.72;0.30;;;;;;;12.45;31.25;99910.22;1773328;78;20957;-52
2021/04/28 10:05:35;;;;;;;0.75;0.30;;;;;;;12.49;31.25;99906.41;1775287;78;21357;-52
2021/04/28 10:08:14;;;;;;;;;;;;;;;12.58;31.25;99905.05;1785460;78;21061;-52
2021/04/28 10:10:42;;;;;;;0.50;0.30;;;;;;;12.68;30.78;99906.27;1775906;78;20299;-52
2021/04/28 10:13:12;;;;;;;0.90;0.40;;;;;;;12.74;30.71;99906.44;1763845;79;21187;-52
2021/04/28 10:15:40;;;;;;;0.57;0.37;;;;;;;12.75;30.80;99910.89;1775509;78;21126;-52
2021/04/28 10:18:09;;;;;;;0.60;0.42;;;;;;;12.78;30.94;99905.30;1775763;79;21381;-53
2021/04/28 10:20:40;;;;;;;0.65;0.30;;;;;;;12.76;30.40;99895.92;1804306;78;21596;-53
2021/04/28 10:23:11;;;;;;;0.62;0.37;;;;;;;12.73;30.39;99905.56;1775600;78;21160;-52
2021/04/28 10:25:38;;;;;;;0.53;0.30;;;;;;;12.70;30.34;99896.73;1775705;78;21128;-52
2021/04/28 10:28:09;;;;;;;1.05;0.40;;;;;;;12.65;30.87;99899.70;1764179;79;21091;-52
2021/04/28 10:30:41;;;;;;;1.30;0.50;;;;;;;12.66;30.65;99893.35;1778659;79;21442;-52
2021/04/28 10:33:15;;;;;;;0.65;0.35;;;;;;;12.68;30.35;99892.77;1775390;79;21154;-52
2021/04/28 10:35:44;;;;;;;1.67;0.40;;;;;;;12.67;30.35;99885.65;1772847;79;21178;-52
2021/04/28 10:38:11;;;;;;;0.55;0.30;;;;;;;12.64;30.32;99890.33;1774411;79;21241;-52
2021/04/28 10:40:39;;;;;;;1.98;0.30;;;;;;;12.67;30.62;99887.47;1772984;79;21187;-52
2021/04/28 10:43:08;;;;;;;0.90;0.30;;;;;;;12.72;30.06;99864.65;1774808;78;21622;-54
2021/04/28 10:45:39;;;;;;;1.12;0.35;;;;;;;12.80;30.35;99885.36;1771474;78;21284;-54
2021/04/28 10:48:11;;;;;;;1.85;0.40;;;;;;;12.91;29.47;99877.14;1773234;78;21254;-53
2021/04/28 10:50:48;;;;;;;0.40;0.30;;;;;;;12.99;29.36;99876.23;1773392;78;21842;-52
2021/04/28 10:53:26;;;;;;;1.00;0.33;;;;;;;13.06;29.71;99881.20;1776596;78;21654;-53
2021/04/28 10:56:06;;;;;;;0.33;0.28;;;;;;;13.13;29.16;99872.26;1774020;78;21568;-53
2021/04/28 10:58:37;;;;;;;0.70;0.40;;;;;;;13.18;29.08;99881.03;1772779;78;21435;-53
2021/04/28 11:01:10;;;;;;;1.60;0.40;;;;;;;13.23;28.81;99877.58;1745961;79;21150;-53
2021/04/28 11:03:48;;;;;;;;;;;;;;;13.23;28.81;99866.28;1778811;78;21116;-54
2021/04/28 11:06:24;;;;;;;0.50;0.30;;;;;;;13.27;29.29;99861.55;1773241;78;20260;-53
2021/04/28 11:09:00;;;;;;;0.60;0.30;;;;;;;13.31;29.26;99863.14;1778646;78;21594;-53
2021/04/28 11:11:42;;;;;;;0.93;0.40;;;;;;;13.33;29.01;99861.70;1770654;78;21127;-53
2021/04/28 11:14:20;;;;;;;1.57;0.37;;;;;;;13.35;28.92;99848.98;1768991;78;21008;-53
2021/04/28 11:16:55;;;;;;;0.85;0.40;;;;;;;13.36;28.83;99852.91;1771069;78;21094;-51
2021/04/28 11:19:34;;;;;;;0.88;0.30;;;;;;;13.38;29.03;99854.19;1775165;78;21580;-52
2021/04/28 11:22:21;;;;;;;0.62;0.30;;;;;;;13.41;29.23;99856.24;1747327;80;21379;-53
2021/04/28 11:25:02;;;;;;;1.10;0.37;;;;;;;13.45;28.61;99848.80;1750373;80;21114;-53
2021/04/28 11:27:49;;;;;;;1.40;0.40;;;;;;;13.45;28.86;99856.44;1775174;78;21124;-53
2021/04/28 11:30:37;;;;;;;0.72;0.30;;;;;;;13.48;28.56;99851.34;1775944;78;21132;-53
2021/04/28 11:33:28;;;;;;;0.40;0.30;;;;;;;13.42;27.85;99849.00;1773399;79;21107;-53
2021/04/28 11:36:06;;;;;;;0.60;0.30;;;;;;;13.33;28.16;99849.06;1770817;78;21703;-53
2021/04/28 11:38:38;;;;;;;2.10;0.45;;;;;;;13.32;28.63;99850.49;1771706;78;21548;-53
2021/04/28 11:41:13;;;;;;;0.55;0.37;;;;;;;13.33;28.43;99845.48;1772092;78;21195;-53
2021/04/28 11:43:54;;;;;;;0.70;0.30;;;;;;;13.35;28.73;99843.57;1776508;78;21113;-53
2021/04/28 11:46:26;;;;;;;1.30;0.40;;;;;;;13.37;29.02;99847.91;1774522;78;21215;-53
2021/04/28 11:48:59;;;;;;;0.50;0.30;;;;;;;13.41;29.20;99845.43;1785974;78;21284;-52
2021/04/28 11:51:29;;;;;;;2.17;0.40;;;;;;;13.45;28.49;99840.22;1761367;79;21162;-53
2021/04/28 11:54:01;;;;;;;0.50;0.35;;;;;;;13.47;28.70;99840.13;1754774;79;21191;-53
2021/04/28 11:56:43;;;;;;;0.70;0.40;;;;;;;13.48;29.24;99837.34;1760802;79;22327;-53
2021/04/28 11:59:23;;;;;;;1.22;0.40;;;;;;;13.53;28.84;99841.98;1755636;79;21440;-52
2021/04/28 12:02:02;;;;;;;1.30;0.40;;;;;;;13.58;28.66;99831.79;1742965;79;21548;-54
2021/04/28 12:04:42;;;;;;;0.78;0.40;;;;;;;13.60;28.34;99830.35;1753396;79;21726;-53